sensor_id;sensor_type;location;lat;lon;timestamp;P1;durP1;ratioP1;P2;durP2;ratioP2
20589;SDS011;10453;50.810;12.540;2023-07-13T00:03:32;5.95;;;3.00;;
20589;SDS011;10453;50.810;12.540;2023-07-13T00:07:52;6.28;;;3.10;;
20589;SDS011;10453;50.810;12.540;2023-07-13T00:12:21;5.40;;;2.72;;
20589;SDS011;10453;50.810;12.540;2023-07-13T00:16:41;5.68;;;2.47;;
20589;SDS011;10453;50.810;12.540;2023-07-13T00:21:01;6.93;;;2.75;;
20589;SDS011;10453;50.810;12.540;2023-07-13T00:25:22;5.30;;;2.45;;
20589;SDS011;10453;50.810;12.540;2023-07-13T00:29:45;6.32;;;2.20;;
20589;SDS011;10453;50.810;12.540;2023-07-13T00:34:02;5.60;;;2.45;;
20589;SDS011;10453;50.810;12.540;2023-07-13T00:38:19;5.43;;;2.40;;
20589;SDS011;10453;50.810;12.540;2023-07-13T00:42:37;6.32;;;2.60;;
20589;SDS011;10453;50.810;12.540;2023-07-13T00:46:54;5.18;;;2.30;;
20589;SDS011;10453;50.810;12.540;2023-07-13T00:51:12;5.87;;;2.10;;
20589;SDS011;10453;50.810;12.540;2023-07-13T00:55:32;3.70;;;1.80;;
20589;SDS011;10453;50.810;12.540;2023-07-13T00:59:52;3.80;;;2.28;;
20589;SDS011;10453;50.810;12.540;2023-07-13T01:04:14;4.43;;;1.80;;
20589;SDS011;10453;50.810;12.540;2023-07-13T01:08:31;5.47;;;1.90;;
20589;SDS011;10453;50.810;12.540;2023-07-13T01:12:48;3.42;;;2.20;;
20589;SDS011;10453;50.810;12.540;2023-07-13T01:17:07;3.67;;;1.90;;
20589;SDS011;10453;50.810;12.540;2023-07-13T01:21:27;5.22;;;2.22;;
20589;SDS011;10453;50.810;12.540;2023-07-13T01:25:46;3.63;;;2.00;;
20589;SDS011;10453;50.810;12.540;2023-07-13T01:30:04;3.08;;;2.13;;
20589;SDS011;10453;50.810;12.540;2023-07-13T01:34:21;5.32;;;2.10;;
20589;SDS011;10453;50.810;12.540;2023-07-13T01:38:39;5.47;;;2.10;;
20589;SDS011;10453;50.810;12.540;2023-07-13T01:42:59;2.42;;;1.70;;
20589;SDS011;10453;50.810;12.540;2023-07-13T01:47:17;6.75;;;2.13;;
20589;SDS011;10453;50.810;12.540;2023-07-13T01:51:34;3.53;;;1.73;;
20589;SDS011;10453;50.810;12.540;2023-07-13T01:55:51;2.90;;;2.15;;
20589;SDS011;10453;50.810;12.540;2023-07-13T02:00:09;7.10;;;2.00;;
20589;SDS011;10453;50.810;12.540;2023-07-13T02:04:27;2.97;;;1.98;;
20589;SDS011;10453;50.810;12.540;2023-07-13T02:08:45;3.88;;;2.00;;
20589;SDS011;10453;50.810;12.540;2023-07-13T02:13:03;4.43;;;1.95;;
20589;SDS011;10453;50.810;12.540;2023-07-13T02:17:22;6.10;;;2.30;;
20589;SDS011;10453;50.810;12.540;2023-07-13T02:21:39;3.42;;;2.20;;
20589;SDS011;10453;50.810;12.540;2023-07-13T02:25:57;2.78;;;2.10;;
20589;SDS011;10453;50.810;12.540;2023-07-13T02:30:15;4.95;;;2.40;;
20589;SDS011;10453;50.810;12.540;2023-07-13T02:34:32;3.83;;;2.30;;
20589;SDS011;10453;50.810;12.540;2023-07-13T02:38:50;4.47;;;2.42;;
20589;SDS011;10453;50.810;12.540;2023-07-13T02:43:07;3.15;;;2.30;;
20589;SDS011;10453;50.810;12.540;2023-07-13T02:47:24;2.83;;;2.33;;
20589;SDS011;10453;50.810;12.540;2023-07-13T02:51:41;3.30;;;2.40;;
20589;SDS011;10453;50.810;12.540;2023-07-13T02:55:59;4.38;;;2.60;;
20589;SDS011;10453;50.810;12.540;2023-07-13T03:00:16;4.57;;;2.40;;
20589;SDS011;10453;50.810;12.540;2023-07-13T03:04:35;3.90;;;2.50;;
20589;SDS011;10453;50.810;12.540;2023-07-13T03:08:52;4.50;;;2.50;;
20589;SDS011;10453;50.810;12.540;2023-07-13T03:13:10;5.35;;;2.45;;
20589;SDS011;10453;50.810;12.540;2023-07-13T03:17:27;4.05;;;2.63;;
20589;SDS011;10453;50.810;12.540;2023-07-13T03:21:44;3.83;;;2.40;;
20589;SDS011;10453;50.810;12.540;2023-07-13T03:26:09;5.50;;;2.60;;
20589;SDS011;10453;50.810;12.540;2023-07-13T03:30:30;4.07;;;2.53;;
20589;SDS011;10453;50.810;12.540;2023-07-13T03:34:47;3.90;;;2.85;;
20589;SDS011;10453;50.810;12.540;2023-07-13T03:39:04;4.45;;;2.70;;
20589;SDS011;10453;50.810;12.540;2023-07-13T03:43:25;3.40;;;2.92;;
20589;SDS011;10453;50.810;12.540;2023-07-13T03:47:42;4.53;;;3.10;;
20589;SDS011;10453;50.810;12.540;2023-07-13T03:51:59;4.72;;;3.15;;
20589;SDS011;10453;50.810;12.540;2023-07-13T03:56:17;6.72;;;3.22;;
20589;SDS011;10453;50.810;12.540;2023-07-13T04:00:35;3.88;;;3.03;;
20589;SDS011;10453;50.810;12.540;2023-07-13T04:04:52;4.88;;;3.03;;
20589;SDS011;10453;50.810;12.540;2023-07-13T04:09:10;4.32;;;2.90;;
20589;SDS011;10453;50.810;12.540;2023-07-13T04:13:27;5.47;;;3.10;;
20589;SDS011;10453;50.810;12.540;2023-07-13T04:17:44;4.22;;;2.72;;
20589;SDS011;10453;50.810;12.540;2023-07-13T04:22:01;3.05;;;2.78;;
20589;SDS011;10453;50.810;12.540;2023-07-13T04:26:19;5.25;;;2.88;;
20589;SDS011;10453;50.810;12.540;2023-07-13T04:30:37;4.80;;;3.15;;
20589;SDS011;10453;50.810;12.540;2023-07-13T04:34:55;7.45;;;3.13;;
20589;SDS011;10453;50.810;12.540;2023-07-13T04:39:14;11.80;;;3.85;;
20589;SDS011;10453;50.810;12.540;2023-07-13T04:43:31;15.18;;;3.72;;
20589;SDS011;10453;50.810;12.540;2023-07-13T04:47:49;11.40;;;4.50;;
20589;SDS011;10453;50.810;12.540;2023-07-13T04:52:07;8.77;;;3.75;;
20589;SDS011;10453;50.810;12.540;2023-07-13T04:56:24;6.07;;;3.83;;
20589;SDS011;10453;50.810;12.540;2023-07-13T05:00:41;6.22;;;3.70;;
20589;SDS011;10453;50.810;12.540;2023-07-13T05:04:59;6.30;;;4.30;;
20589;SDS011;10453;50.810;12.540;2023-07-13T05:09:16;7.78;;;3.63;;
20589;SDS011;10453;50.810;12.540;2023-07-13T05:13:33;5.18;;;4.15;;
20589;SDS011;10453;50.810;12.540;2023-07-13T05:17:50;7.07;;;4.28;;
20589;SDS011;10453;50.810;12.540;2023-07-13T05:22:08;7.03;;;3.60;;
20589;SDS011;10453;50.810;12.540;2023-07-13T05:26:25;8.10;;;3.63;;
20589;SDS011;10453;50.810;12.540;2023-07-13T05:30:46;6.22;;;3.30;;
20589;SDS011;10453;50.810;12.540;2023-07-13T05:35:04;7.40;;;3.70;;
20589;SDS011;10453;50.810;12.540;2023-07-13T05:39:22;8.30;;;3.72;;
20589;SDS011;10453;50.810;12.540;2023-07-13T05:43:39;9.30;;;3.55;;
20589;SDS011;10453;50.810;12.540;2023-07-13T05:47:57;5.10;;;3.17;;
20589;SDS011;10453;50.810;12.540;2023-07-13T05:52:14;5.43;;;2.63;;
20589;SDS011;10453;50.810;12.540;2023-07-13T05:56:31;6.28;;;2.50;;
20589;SDS011;10453;50.810;12.540;2023-07-13T06:00:48;5.65;;;2.40;;
20589;SDS011;10453;50.810;12.540;2023-07-13T06:05:17;6.67;;;2.13;;
20589;SDS011;10453;50.810;12.540;2023-07-13T06:09:34;5.28;;;2.30;;
20589;SDS011;10453;50.810;12.540;2023-07-13T06:13:51;6.78;;;2.70;;
20589;SDS011;10453;50.810;12.540;2023-07-13T06:18:09;4.65;;;2.15;;
20589;SDS011;10453;50.810;12.540;2023-07-13T06:22:26;4.78;;;2.28;;
20589;SDS011;10453;50.810;12.540;2023-07-13T06:26:44;6.77;;;2.07;;
20589;SDS011;10453;50.810;12.540;2023-07-13T06:31:01;10.60;;;2.42;;
20589;SDS011;10453;50.810;12.540;2023-07-13T06:35:22;7.72;;;2.65;;
20589;SDS011;10453;50.810;12.540;2023-07-13T06:39:39;8.70;;;2.40;;
20589;SDS011;10453;50.810;12.540;2023-07-13T06:43:57;7.13;;;2.08;;
20589;SDS011;10453;50.810;12.540;2023-07-13T06:48:14;6.65;;;1.98;;
20589;SDS011;10453;50.810;12.540;2023-07-13T06:52:32;5.33;;;2.07;;
20589;SDS011;10453;50.810;12.540;2023-07-13T06:56:49;7.55;;;2.25;;
20589;SDS011;10453;50.810;12.540;2023-07-13T07:01:06;5.25;;;2.00;;
20589;SDS011;10453;50.810;12.540;2023-07-13T07:09:42;7.38;;;2.22;;
20589;SDS011;10453;50.810;12.540;2023-07-13T07:13:59;5.00;;;2.30;;
20589;SDS011;10453;50.810;12.540;2023-07-13T07:18:17;5.97;;;2.17;;
20589;SDS011;10453;50.810;12.540;2023-07-13T07:22:34;6.38;;;2.20;;
20589;SDS011;10453;50.810;12.540;2023-07-13T07:26:51;6.35;;;2.33;;
20589;SDS011;10453;50.810;12.540;2023-07-13T07:31:12;9.02;;;2.30;;
20589;SDS011;10453;50.810;12.540;2023-07-13T07:35:32;4.32;;;2.17;;
20589;SDS011;10453;50.810;12.540;2023-07-13T07:39:54;6.75;;;2.10;;
20589;SDS011;10453;50.810;12.540;2023-07-13T07:44:14;5.88;;;2.00;;
20589;SDS011;10453;50.810;12.540;2023-07-13T07:48:32;7.90;;;2.22;;
20589;SDS011;10453;50.810;12.540;2023-07-13T07:52:49;4.68;;;2.13;;
20589;SDS011;10453;50.810;12.540;2023-07-13T07:57:07;5.80;;;2.03;;
20589;SDS011;10453;50.810;12.540;2023-07-13T08:01:27;7.85;;;2.20;;
20589;SDS011;10453;50.810;12.540;2023-07-13T08:05:47;8.15;;;2.47;;
20589;SDS011;10453;50.810;12.540;2023-07-13T08:10:24;5.47;;;2.20;;
20589;SDS011;10453;50.810;12.540;2023-07-13T08:14:42;5.30;;;2.10;;
20589;SDS011;10453;50.810;12.540;2023-07-13T08:19:08;4.63;;;1.90;;
20589;SDS011;10453;50.810;12.540;2023-07-13T08:23:26;6.93;;;1.95;;
20589;SDS011;10453;50.810;12.540;2023-07-13T08:27:43;4.90;;;2.35;;
20589;SDS011;10453;50.810;12.540;2023-07-13T08:32:00;7.53;;;2.00;;
20589;SDS011;10453;50.810;12.540;2023-07-13T08:36:17;6.50;;;2.53;;
20589;SDS011;10453;50.810;12.540;2023-07-13T08:40:34;6.13;;;2.03;;
20589;SDS011;10453;50.810;12.540;2023-07-13T08:44:56;4.68;;;2.10;;
20589;SDS011;10453;50.810;12.540;2023-07-13T08:49:22;6.13;;;2.13;;
20589;SDS011;10453;50.810;12.540;2023-07-13T08:53:40;6.75;;;1.90;;
20589;SDS011;10453;50.810;12.540;2023-07-13T08:58:05;4.40;;;1.85;;
20589;SDS011;10453;50.810;12.540;2023-07-13T09:02:30;6.97;;;1.92;;
20589;SDS011;10453;50.810;12.540;2023-07-13T09:07:05;2.85;;;1.75;;
20589;SDS011;10453;50.810;12.540;2023-07-13T09:15:52;4.40;;;1.83;;
20589;SDS011;10453;50.810;12.540;2023-07-13T09:20:19;4.13;;;1.77;;
20589;SDS011;10453;50.810;12.540;2023-07-13T09:24:50;4.95;;;1.80;;
20589;SDS011;10453;50.810;12.540;2023-07-13T09:29:11;10.60;;;1.77;;
20589;SDS011;10453;50.810;12.540;2023-07-13T09:33:35;4.55;;;1.80;;
20589;SDS011;10453;50.810;12.540;2023-07-13T09:37:52;7.43;;;1.90;;
20589;SDS011;10453;50.810;12.540;2023-07-13T09:42:18;4.15;;;1.52;;
20589;SDS011;10453;50.810;12.540;2023-07-13T09:46:40;6.85;;;1.95;;
20589;SDS011;10453;50.810;12.540;2023-07-13T09:51:06;6.53;;;1.92;;
20589;SDS011;10453;50.810;12.540;2023-07-13T09:55:31;5.93;;;2.08;;
20589;SDS011;10453;50.810;12.540;2023-07-13T09:59:52;5.75;;;1.98;;
20589;SDS011;10453;50.810;12.540;2023-07-13T10:04:11;5.57;;;2.47;;
20589;SDS011;10453;50.810;12.540;2023-07-13T10:08:32;5.75;;;1.70;;
20589;SDS011;10453;50.810;12.540;2023-07-13T10:12:52;6.88;;;1.73;;
20589;SDS011;10453;50.810;12.540;2023-07-13T10:17:10;3.50;;;1.50;;
20589;SDS011;10453;50.810;12.540;2023-07-13T10:21:32;6.15;;;1.85;;
20589;SDS011;10453;50.810;12.540;2023-07-13T10:25:59;7.10;;;1.50;;
20589;SDS011;10453;50.810;12.540;2023-07-13T10:30:19;4.00;;;1.48;;
20589;SDS011;10453;50.810;12.540;2023-07-13T10:34:43;2.67;;;1.58;;
20589;SDS011;10453;50.810;12.540;2023-07-13T10:39:04;4.50;;;1.90;;
20589;SDS011;10453;50.810;12.540;2023-07-13T10:48:00;4.18;;;1.58;;
20589;SDS011;10453;50.810;12.540;2023-07-13T10:57:07;4.28;;;1.85;;
20589;SDS011;10453;50.810;12.540;2023-07-13T11:01:40;3.00;;;1.33;;
20589;SDS011;10453;50.810;12.540;2023-07-13T11:06:15;5.53;;;1.63;;
20589;SDS011;10453;50.810;12.540;2023-07-13T11:10:51;6.05;;;1.90;;
20589;SDS011;10453;50.810;12.540;2023-07-13T11:15:10;3.70;;;1.58;;
20589;SDS011;10453;50.810;12.540;2023-07-13T11:19:37;9.30;;;1.92;;
20589;SDS011;10453;50.810;12.540;2023-07-13T11:24:02;6.15;;;1.90;;
20589;SDS011;10453;50.810;12.540;2023-07-13T11:28:38;3.67;;;1.70;;
20589;SDS011;10453;50.810;12.540;2023-07-13T11:33:02;5.45;;;2.00;;
20589;SDS011;10453;50.810;12.540;2023-07-13T11:37:28;5.60;;;1.90;;
20589;SDS011;10453;50.810;12.540;2023-07-13T11:41:53;4.07;;;1.70;;
20589;SDS011;10453;50.810;12.540;2023-07-13T11:46:24;4.00;;;1.60;;
20589;SDS011;10453;50.810;12.540;2023-07-13T11:55:13;3.45;;;1.80;;
20589;SDS011;10453;50.810;12.540;2023-07-13T11:59:32;4.53;;;1.98;;
20589;SDS011;10453;50.810;12.540;2023-07-13T12:03:54;2.70;;;1.48;;
20589;SDS011;10453;50.810;12.540;2023-07-13T12:08:12;9.63;;;2.00;;
20589;SDS011;10453;50.810;12.540;2023-07-13T12:12:46;3.77;;;1.73;;
20589;SDS011;10453;50.810;12.540;2023-07-13T12:17:26;1.67;;;1.40;;
20589;SDS011;10453;50.810;12.540;2023-07-13T12:21:43;5.03;;;1.60;;
20589;SDS011;10453;50.810;12.540;2023-07-13T12:26:02;5.73;;;1.60;;
20589;SDS011;10453;50.810;12.540;2023-07-13T12:30:28;8.00;;;1.85;;
20589;SDS011;10453;50.810;12.540;2023-07-13T12:34:55;4.72;;;1.80;;
20589;SDS011;10453;50.810;12.540;2023-07-13T12:39:20;6.07;;;1.65;;
20589;SDS011;10453;50.810;12.540;2023-07-13T12:43:47;5.50;;;1.63;;
20589;SDS011;10453;50.810;12.540;2023-07-13T12:48:11;3.72;;;1.33;;
20589;SDS011;10453;50.810;12.540;2023-07-13T12:52:32;10.43;;;1.40;;
20589;SDS011;10453;50.810;12.540;2023-07-13T12:56:52;1.90;;;1.10;;
20589;SDS011;10453;50.810;12.540;2023-07-13T13:01:11;1.75;;;1.27;;
20589;SDS011;10453;50.810;12.540;2023-07-13T13:05:30;2.63;;;1.20;;
20589;SDS011;10453;50.810;12.540;2023-07-13T13:09:50;3.13;;;1.10;;
20589;SDS011;10453;50.810;12.540;2023-07-13T13:14:08;3.23;;;1.07;;
20589;SDS011;10453;50.810;12.540;2023-07-13T13:18:26;2.42;;;0.90;;
20589;SDS011;10453;50.810;12.540;2023-07-13T13:22:43;3.60;;;1.10;;
20589;SDS011;10453;50.810;12.540;2023-07-13T13:27:00;2.13;;;0.98;;
20589;SDS011;10453;50.810;12.540;2023-07-13T13:31:18;2.58;;;0.93;;
20589;SDS011;10453;50.810;12.540;2023-07-13T13:35:36;2.80;;;0.83;;
20589;SDS011;10453;50.810;12.540;2023-07-13T13:39:53;2.80;;;0.73;;
20589;SDS011;10453;50.810;12.540;2023-07-13T13:44:24;1.48;;;0.80;;
20589;SDS011;10453;50.810;12.540;2023-07-13T13:48:41;4.03;;;1.00;;
20589;SDS011;10453;50.810;12.540;2023-07-13T13:52:59;3.20;;;0.80;;
20589;SDS011;10453;50.810;12.540;2023-07-13T13:57:18;2.80;;;1.08;;
20589;SDS011;10453;50.810;12.540;2023-07-13T14:01:36;1.77;;;1.00;;
20589;SDS011;10453;50.810;12.540;2023-07-13T14:05:54;1.67;;;0.90;;
20589;SDS011;10453;50.810;12.540;2023-07-13T14:10:14;2.80;;;0.88;;
20589;SDS011;10453;50.810;12.540;2023-07-13T14:14:34;2.88;;;0.75;;
20589;SDS011;10453;50.810;12.540;2023-07-13T14:18:52;2.07;;;0.90;;
20589;SDS011;10453;50.810;12.540;2023-07-13T14:23:09;4.65;;;0.70;;
20589;SDS011;10453;50.810;12.540;2023-07-13T14:27:27;3.83;;;0.95;;
20589;SDS011;10453;50.810;12.540;2023-07-13T14:31:44;1.77;;;0.70;;
20589;SDS011;10453;50.810;12.540;2023-07-13T14:36:02;2.05;;;0.95;;
20589;SDS011;10453;50.810;12.540;2023-07-13T14:40:30;3.50;;;0.77;;
20589;SDS011;10453;50.810;12.540;2023-07-13T14:44:48;2.25;;;0.80;;
20589;SDS011;10453;50.810;12.540;2023-07-13T14:54:01;1.95;;;0.80;;
20589;SDS011;10453;50.810;12.540;2023-07-13T14:58:20;3.10;;;0.93;;
20589;SDS011;10453;50.810;12.540;2023-07-13T15:02:40;2.55;;;0.88;;
20589;SDS011;10453;50.810;12.540;2023-07-13T15:06:58;0.70;;;0.70;;
20589;SDS011;10453;50.810;12.540;2023-07-13T15:11:18;1.17;;;0.88;;
20589;SDS011;10453;50.810;12.540;2023-07-13T15:15:35;3.30;;;1.00;;
20589;SDS011;10453;50.810;12.540;2023-07-13T15:19:54;3.83;;;0.82;;
20589;SDS011;10453;50.810;12.540;2023-07-13T15:24:12;3.33;;;1.10;;
20589;SDS011;10453;50.810;12.540;2023-07-13T15:28:30;3.67;;;0.80;;
20589;SDS011;10453;50.810;12.540;2023-07-13T15:32:48;4.53;;;1.27;;
20589;SDS011;10453;50.810;12.540;2023-07-13T15:37:12;4.90;;;1.10;;
20589;SDS011;10453;50.810;12.540;2023-07-13T15:41:33;3.58;;;0.88;;
20589;SDS011;10453;50.810;12.540;2023-07-13T15:45:51;2.05;;;0.90;;
20589;SDS011;10453;50.810;12.540;2023-07-13T15:50:19;4.50;;;0.90;;
20589;SDS011;10453;50.810;12.540;2023-07-13T15:54:39;2.45;;;1.30;;
20589;SDS011;10453;50.810;12.540;2023-07-13T15:58:57;4.22;;;1.00;;
20589;SDS011;10453;50.810;12.540;2023-07-13T16:03:14;2.03;;;0.95;;
20589;SDS011;10453;50.810;12.540;2023-07-13T16:07:32;4.43;;;1.35;;
20589;SDS011;10453;50.810;12.540;2023-07-13T16:11:49;1.77;;;1.20;;
20589;SDS011;10453;50.810;12.540;2023-07-13T16:16:08;3.03;;;1.05;;
20589;SDS011;10453;50.810;12.540;2023-07-13T16:20:28;5.10;;;1.10;;
20589;SDS011;10453;50.810;12.540;2023-07-13T16:24:46;1.70;;;1.10;;
20589;SDS011;10453;50.810;12.540;2023-07-13T16:29:03;2.00;;;1.00;;
20589;SDS011;10453;50.810;12.540;2023-07-13T16:33:27;3.22;;;1.10;;
20589;SDS011;10453;50.810;12.540;2023-07-13T16:42:18;4.10;;;1.00;;
20589;SDS011;10453;50.810;12.540;2023-07-13T16:46:35;3.72;;;0.98;;
20589;SDS011;10453;50.810;12.540;2023-07-13T16:50:53;2.33;;;0.98;;
20589;SDS011;10453;50.810;12.540;2023-07-13T16:55:13;6.47;;;0.80;;
20589;SDS011;10453;50.810;12.540;2023-07-13T16:59:33;5.88;;;1.00;;
20589;SDS011;10453;50.810;12.540;2023-07-13T17:03:51;3.95;;;0.95;;
20589;SDS011;10453;50.810;12.540;2023-07-13T17:08:21;3.03;;;0.93;;
20589;SDS011;10453;50.810;12.540;2023-07-13T17:12:40;3.03;;;0.95;;
20589;SDS011;10453;50.810;12.540;2023-07-13T17:21:16;1.90;;;1.00;;
20589;SDS011;10453;50.810;12.540;2023-07-13T17:25:34;3.83;;;1.00;;
20589;SDS011;10453;50.810;12.540;2023-07-13T17:29:51;3.22;;;0.80;;
20589;SDS011;10453;50.810;12.540;2023-07-13T17:34:20;4.65;;;1.10;;
20589;SDS011;10453;50.810;12.540;2023-07-13T17:38:42;2.60;;;0.98;;
20589;SDS011;10453;50.810;12.540;2023-07-13T17:47:22;4.25;;;1.15;;
20589;SDS011;10453;50.810;12.540;2023-07-13T17:51:43;1.02;;;0.80;;
20589;SDS011;10453;50.810;12.540;2023-07-13T17:56:01;2.80;;;1.00;;
20589;SDS011;10453;50.810;12.540;2023-07-13T18:00:22;3.72;;;0.93;;
20589;SDS011;10453;50.810;12.540;2023-07-13T18:04:57;2.03;;;0.90;;
20589;SDS011;10453;50.810;12.540;2023-07-13T18:09:18;2.28;;;1.13;;
20589;SDS011;10453;50.810;12.540;2023-07-13T18:13:49;1.25;;;1.00;;
20589;SDS011;10453;50.810;12.540;2023-07-13T18:18:08;2.00;;;1.20;;
20589;SDS011;10453;50.810;12.540;2023-07-13T18:22:28;2.33;;;0.90;;
20589;SDS011;10453;50.810;12.540;2023-07-13T18:26:47;1.50;;;1.08;;
20589;SDS011;10453;50.810;12.540;2023-07-13T18:31:05;2.15;;;1.02;;
20589;SDS011;10453;50.810;12.540;2023-07-13T18:35:32;1.42;;;0.85;;
20589;SDS011;10453;50.810;12.540;2023-07-13T18:39:51;1.38;;;0.80;;
20589;SDS011;10453;50.810;12.540;2023-07-13T18:44:09;1.50;;;1.00;;
20589;SDS011;10453;50.810;12.540;2023-07-13T18:48:30;4.68;;;0.90;;
20589;SDS011;10453;50.810;12.540;2023-07-13T18:52:49;1.58;;;0.88;;
20589;SDS011;10453;50.810;12.540;2023-07-13T18:57:06;4.22;;;1.00;;
20589;SDS011;10453;50.810;12.540;2023-07-13T19:01:29;3.15;;;1.00;;
20589;SDS011;10453;50.810;12.540;2023-07-13T19:05:52;3.92;;;1.23;;
20589;SDS011;10453;50.810;12.540;2023-07-13T19:10:30;6.18;;;0.85;;
20589;SDS011;10453;50.810;12.540;2023-07-13T19:14:48;3.80;;;1.00;;
20589;SDS011;10453;50.810;12.540;2023-07-13T19:19:11;3.50;;;0.90;;
20589;SDS011;10453;50.810;12.540;2023-07-13T19:23:41;2.00;;;1.00;;
20589;SDS011;10453;50.810;12.540;2023-07-13T19:28:05;1.35;;;0.93;;
20589;SDS011;10453;50.810;12.540;2023-07-13T19:32:41;3.53;;;1.10;;
20589;SDS011;10453;50.810;12.540;2023-07-13T19:37:04;3.42;;;1.55;;
20589;SDS011;10453;50.810;12.540;2023-07-13T19:41:34;6.57;;;1.45;;
20589;SDS011;10453;50.810;12.540;2023-07-13T19:45:53;5.75;;;1.40;;
20589;SDS011;10453;50.810;12.540;2023-07-13T19:50:12;2.40;;;1.25;;
20589;SDS011;10453;50.810;12.540;2023-07-13T19:54:34;6.78;;;1.38;;
20589;SDS011;10453;50.810;12.540;2023-07-13T19:58:52;4.10;;;1.48;;
20589;SDS011;10453;50.810;12.540;2023-07-13T20:03:10;3.35;;;1.40;;
20589;SDS011;10453;50.810;12.540;2023-07-13T20:07:27;3.25;;;1.20;;
20589;SDS011;10453;50.810;12.540;2023-07-13T20:11:49;7.47;;;1.73;;
20589;SDS011;10453;50.810;12.540;2023-07-13T20:16:12;3.17;;;1.27;;
20589;SDS011;10453;50.810;12.540;2023-07-13T20:20:33;2.83;;;1.35;;
20589;SDS011;10453;50.810;12.540;2023-07-13T20:25:12;3.65;;;1.20;;
20589;SDS011;10453;50.810;12.540;2023-07-13T20:29:33;2.40;;;1.10;;
20589;SDS011;10453;50.810;12.540;2023-07-13T20:33:51;2.80;;;0.98;;
20589;SDS011;10453;50.810;12.540;2023-07-13T20:39:01;2.03;;;0.98;;
20589;SDS011;10453;50.810;12.540;2023-07-13T20:43:18;5.93;;;1.27;;
20589;SDS011;10453;50.810;12.540;2023-07-13T20:51:55;3.75;;;0.90;;
20589;SDS011;10453;50.810;12.540;2023-07-13T20:56:15;5.28;;;1.30;;
20589;SDS011;10453;50.810;12.540;2023-07-13T21:00:40;2.90;;;1.20;;
20589;SDS011;10453;50.810;12.540;2023-07-13T21:09:33;5.80;;;1.50;;
20589;SDS011;10453;50.810;12.540;2023-07-13T21:13:51;6.82;;;1.70;;
20589;SDS011;10453;50.810;12.540;2023-07-13T21:18:21;5.95;;;1.60;;
20589;SDS011;10453;50.810;12.540;2023-07-13T21:22:41;6.15;;;1.95;;
20589;SDS011;10453;50.810;12.540;2023-07-13T21:26:58;3.53;;;1.60;;
20589;SDS011;10453;50.810;12.540;2023-07-13T21:31:28;6.15;;;2.15;;
20589;SDS011;10453;50.810;12.540;2023-07-13T21:35:54;7.82;;;2.78;;
20589;SDS011;10453;50.810;12.540;2023-07-13T21:40:14;3.40;;;2.33;;
20589;SDS011;10453;50.810;12.540;2023-07-13T21:44:32;9.68;;;2.33;;
20589;SDS011;10453;50.810;12.540;2023-07-13T21:48:50;6.80;;;2.08;;
20589;SDS011;10453;50.810;12.540;2023-07-13T21:53:15;5.75;;;2.40;;
20589;SDS011;10453;50.810;12.540;2023-07-13T21:57:33;7.63;;;2.80;;
20589;SDS011;10453;50.810;12.540;2023-07-13T22:01:50;7.97;;;2.95;;
20589;SDS011;10453;50.810;12.540;2023-07-13T22:06:18;4.97;;;2.30;;
20589;SDS011;10453;50.810;12.540;2023-07-13T22:10:40;7.75;;;2.72;;
20589;SDS011;10453;50.810;12.540;2023-07-13T22:14:57;5.88;;;2.65;;
20589;SDS011;10453;50.810;12.540;2023-07-13T22:19:16;4.95;;;2.40;;
20589;SDS011;10453;50.810;12.540;2023-07-13T22:23:35;5.50;;;2.40;;
20589;SDS011;10453;50.810;12.540;2023-07-13T22:27:52;6.43;;;2.35;;
20589;SDS011;10453;50.810;12.540;2023-07-13T22:32:09;6.55;;;2.60;;
20589;SDS011;10453;50.810;12.540;2023-07-13T22:36:31;4.82;;;2.55;;
20589;SDS011;10453;50.810;12.540;2023-07-13T22:40:48;5.72;;;2.42;;
20589;SDS011;10453;50.810;12.540;2023-07-13T22:45:06;5.82;;;2.72;;
20589;SDS011;10453;50.810;12.540;2023-07-13T22:49:29;3.88;;;2.47;;
20589;SDS011;10453;50.810;12.540;2023-07-13T22:53:49;7.93;;;2.60;;
20589;SDS011;10453;50.810;12.540;2023-07-13T22:58:07;6.38;;;2.72;;
20589;SDS011;10453;50.810;12.540;2023-07-13T23:02:25;4.82;;;2.80;;
20589;SDS011;10453;50.810;12.540;2023-07-13T23:06:42;5.18;;;2.70;;
20589;SDS011;10453;50.810;12.540;2023-07-13T23:11:01;5.93;;;2.80;;
20589;SDS011;10453;50.810;12.540;2023-07-13T23:15:18;6.88;;;2.58;;
20589;SDS011;10453;50.810;12.540;2023-07-13T23:19:36;4.97;;;2.70;;
20589;SDS011;10453;50.810;12.540;2023-07-13T23:23:54;4.38;;;2.65;;
20589;SDS011;10453;50.810;12.540;2023-07-13T23:28:12;4.85;;;2.65;;
20589;SDS011;10453;50.810;12.540;2023-07-13T23:32:29;5.38;;;2.50;;
20589;SDS011;10453;50.810;12.540;2023-07-13T23:36:47;3.78;;;2.72;;
20589;SDS011;10453;50.810;12.540;2023-07-13T23:41:08;5.43;;;2.80;;
20589;SDS011;10453;50.810;12.540;2023-07-13T23:45:30;5.72;;;2.85;;
20589;SDS011;10453;50.810;12.540;2023-07-13T23:49:48;6.25;;;3.08;;
20589;SDS011;10453;50.810;12.540;2023-07-13T23:54:09;5.75;;;3.22;;
20589;SDS011;10453;50.810;12.540;2023-07-13T23:58:28;6.68;;;3.40;;
